sensor_id;sensor_type;location;lat;lon;timestamp;pressure;altitude;pressure_sealevel;temperature;humidity
22389;BME280;11362;48.102;11.620;2022-09-09T00:04:41;95070.56;;;24.50;46.42
22389;BME280;11362;48.102;11.620;2022-09-09T00:10:13;95071.34;;;24.50;46.34
22389;BME280;11362;48.102;11.620;2022-09-09T00:13:01;95068.56;;;24.50;46.22
22389;BME280;11362;48.102;11.620;2022-09-09T00:15:38;95070.13;;;24.51;46.26
22389;BME280;11362;48.102;11.620;2022-09-09T00:18:38;95068.56;;;24.50;46.10
22389;BME280;11362;48.102;11.620;2022-09-09T00:21:07;95067.78;;;24.50;46.39
22389;BME280;11362;48.102;11.620;2022-09-09T00:23:44;95067.78;;;24.50;46.29
22389;BME280;11362;48.102;11.620;2022-09-09T00:31:30;95059.88;;;24.48;46.45
22389;BME280;11362;48.102;11.620;2022-09-09T00:34:03;95062.22;;;24.50;46.31
22389;BME280;11362;48.102;11.620;2022-09-09T00:36:32;95064.25;;;24.49;46.32
22389;BME280;11362;48.102;11.620;2022-09-09T00:39:00;95069.78;;;24.49;46.22
22389;BME280;11362;48.102;11.620;2022-09-09T00:41:42;95075.34;;;24.49;46.46
22389;BME280;11362;48.102;11.620;2022-09-09T00:44:34;95075.34;;;24.49;46.26
22389;BME280;11362;48.102;11.620;2022-09-09T00:47:05;95078.13;;;24.49;46.05
22389;BME280;11362;48.102;11.620;2022-09-09T00:49:55;95078.13;;;24.49;46.22
22389;BME280;11362;48.102;11.620;2022-09-09T00:57:55;95080.09;;;24.49;46.34
22389;BME280;11362;48.102;11.620;2022-09-09T01:05:34;95077.75;;;24.47;46.36
22389;BME280;11362;48.102;11.620;2022-09-09T01:08:03;95075.75;;;24.48;46.22
22389;BME280;11362;48.102;11.620;2022-09-09T01:10:41;95084.09;;;24.48;46.36
22389;BME280;11362;48.102;11.620;2022-09-09T01:13:16;95079.31;;;24.48;46.33
22389;BME280;11362;48.102;11.620;2022-09-09T01:15:44;95074.97;;;24.47;46.26
22389;BME280;11362;48.102;11.620;2022-09-09T01:18:13;95076.53;;;24.48;46.37
22389;BME280;11362;48.102;11.620;2022-09-09T01:21:07;95082.09;;;24.48;46.20
22389;BME280;11362;48.102;11.620;2022-09-09T01:26:26;95072.19;;;24.47;46.35
22389;BME280;11362;48.102;11.620;2022-09-09T01:28:52;95075.75;;;24.48;46.25
22389;BME280;11362;48.102;11.620;2022-09-09T01:31:31;95072.19;;;24.47;46.27
22389;BME280;11362;48.102;11.620;2022-09-09T01:33:58;95082.09;;;24.48;46.37
22389;BME280;11362;48.102;11.620;2022-09-09T01:36:33;95074.97;;;24.47;46.21
22389;BME280;11362;48.102;11.620;2022-09-09T01:39:03;95068.19;;;24.48;46.42
22389;BME280;11362;48.102;11.620;2022-09-09T01:41:28;95071.44;;;24.47;46.24
22389;BME280;11362;48.102;11.620;2022-09-09T01:43:55;95073.75;;;24.48;46.17
22389;BME280;11362;48.102;11.620;2022-09-09T01:46:22;95072.19;;;24.47;46.09
22389;BME280;11362;48.102;11.620;2022-09-09T01:48:48;95076.97;;;24.47;46.28
22389;BME280;11362;48.102;11.620;2022-09-09T01:51:15;95076.19;;;24.46;46.38
22389;BME280;11362;48.102;11.620;2022-09-09T01:53:41;95077.75;;;24.47;46.30
22389;BME280;11362;48.102;11.620;2022-09-09T01:56:28;95077.75;;;24.47;46.41
22389;BME280;11362;48.102;11.620;2022-09-09T01:59:24;95078.19;;;24.46;46.14
22389;BME280;11362;48.102;11.620;2022-09-09T02:02:08;95070.63;;;24.46;46.13
22389;BME280;11362;48.102;11.620;2022-09-09T02:04:56;95071.44;;;24.47;46.39
22389;BME280;11362;48.102;11.620;2022-09-09T02:07:33;95072.63;;;24.46;46.43
22389;BME280;11362;48.102;11.620;2022-09-09T02:10:10;95067.09;;;24.46;46.37
22389;BME280;11362;48.102;11.620;2022-09-09T02:12:40;95065.88;;;24.47;46.35
22389;BME280;11362;48.102;11.620;2022-09-09T02:15:13;95062.31;;;24.46;46.14
22389;BME280;11362;48.102;11.620;2022-09-09T02:17:41;95062.31;;;24.46;46.24
22389;BME280;11362;48.102;11.620;2022-09-09T02:20:12;95059.53;;;24.46;46.36
22389;BME280;11362;48.102;11.620;2022-09-09T02:22:41;95060.75;;;24.45;46.10
22389;BME280;11362;48.102;11.620;2022-09-09T02:25:10;95062.31;;;24.46;46.23
22389;BME280;11362;48.102;11.620;2022-09-09T02:27:36;95053.97;;;24.46;46.15
22389;BME280;11362;48.102;11.620;2022-09-09T02:30:03;95065.06;;;24.46;46.34
22389;BME280;11362;48.102;11.620;2022-09-09T02:32:32;95062.31;;;24.46;46.04
22389;BME280;11362;48.102;11.620;2022-09-09T02:35:02;95069.06;;;24.45;46.29
22389;BME280;11362;48.102;11.620;2022-09-09T02:37:36;95064.31;;;24.46;46.41
22389;BME280;11362;48.102;11.620;2022-09-09T02:40:05;95063.50;;;24.45;46.35
22389;BME280;11362;48.102;11.620;2022-09-09T02:42:32;95065.50;;;24.45;46.35
22389;BME280;11362;48.102;11.620;2022-09-09T02:45:03;95057.97;;;24.45;46.15
22389;BME280;11362;48.102;11.620;2022-09-09T02:47:37;95054.38;;;24.45;46.41
22389;BME280;11362;48.102;11.620;2022-09-09T02:50:15;95051.63;;;24.45;46.22
22389;BME280;11362;48.102;11.620;2022-09-09T02:55:37;95057.16;;;24.45;46.31
22389;BME280;11362;48.102;11.620;2022-09-09T02:58:06;95055.97;;;24.46;46.43
22389;BME280;11362;48.102;11.620;2022-09-09T03:00:33;95064.31;;;24.46;46.15
22389;BME280;11362;48.102;11.620;2022-09-09T03:02:58;95055.19;;;24.45;46.23
22389;BME280;11362;48.102;11.620;2022-09-09T03:05:24;95056.41;;;24.44;46.30
22389;BME280;11362;48.102;11.620;2022-09-09T03:07:49;95048.06;;;24.44;46.36
22389;BME280;11362;48.102;11.620;2022-09-09T03:10:15;95051.63;;;24.45;46.28
22389;BME280;11362;48.102;11.620;2022-09-09T03:12:40;95044.50;;;24.44;46.33
22389;BME280;11362;48.102;11.620;2022-09-09T03:15:06;95048.84;;;24.45;46.26
22389;BME280;11362;48.102;11.620;2022-09-09T03:17:32;95048.06;;;24.44;46.38
22389;BME280;11362;48.102;11.620;2022-09-09T03:19:57;95042.53;;;24.44;46.42
22389;BME280;11362;48.102;11.620;2022-09-09T03:22:22;95039.75;;;24.44;46.28
22389;BME280;11362;48.102;11.620;2022-09-09T03:24:48;95046.06;;;24.45;46.21
22389;BME280;11362;48.102;11.620;2022-09-09T03:27:13;95040.97;;;24.43;46.28
22389;BME280;11362;48.102;11.620;2022-09-09T03:29:38;95039.75;;;24.44;46.19
22389;BME280;11362;48.102;11.620;2022-09-09T03:32:04;95045.28;;;24.44;46.28
22389;BME280;11362;48.102;11.620;2022-09-09T03:34:29;95045.28;;;24.44;46.29
22389;BME280;11362;48.102;11.620;2022-09-09T03:36:54;95050.84;;;24.44;46.32
22389;BME280;11362;48.102;11.620;2022-09-09T03:39:19;95045.28;;;24.44;46.10
22389;BME280;11362;48.102;11.620;2022-09-09T03:41:45;95050.84;;;24.44;46.18
22389;BME280;11362;48.102;11.620;2022-09-09T03:44:10;95038.19;;;24.43;46.20
22389;BME280;11362;48.102;11.620;2022-09-09T03:46:35;95038.94;;;24.44;46.28
22389;BME280;11362;48.102;11.620;2022-09-09T03:49:01;95044.50;;;24.44;46.12
22389;BME280;11362;48.102;11.620;2022-09-09T03:51:26;95038.19;;;24.43;46.33
22389;BME280;11362;48.102;11.620;2022-09-09T03:53:51;95045.72;;;24.43;46.24
22389;BME280;11362;48.102;11.620;2022-09-09T03:56:16;95050.84;;;24.44;46.14
22389;BME280;11362;48.102;11.620;2022-09-09T03:58:42;95045.28;;;24.44;46.23
22389;BME280;11362;48.102;11.620;2022-09-09T04:01:12;95032.63;;;24.43;46.33
22389;BME280;11362;48.102;11.620;2022-09-09T04:03:38;95035.41;;;24.43;46.13
22389;BME280;11362;48.102;11.620;2022-09-09T04:06:04;95042.94;;;24.43;46.20
22389;BME280;11362;48.102;11.620;2022-09-09T04:08:30;95042.94;;;24.43;46.27
22389;BME280;11362;48.102;11.620;2022-09-09T04:10:56;95043.72;;;24.43;46.29
22389;BME280;11362;48.102;11.620;2022-09-09T04:13:21;95037.38;;;24.43;46.35
22389;BME280;11362;48.102;11.620;2022-09-09T04:15:53;95032.63;;;24.43;46.18
22389;BME280;11362;48.102;11.620;2022-09-09T04:18:20;95029.06;;;24.43;46.36
22389;BME280;11362;48.102;11.620;2022-09-09T04:20:47;95023.50;;;24.43;46.41
22389;BME280;11362;48.102;11.620;2022-09-09T04:23:12;95025.50;;;24.42;46.29
22389;BME280;11362;48.102;11.620;2022-09-09T04:25:43;95027.50;;;24.42;46.23
22389;BME280;11362;48.102;11.620;2022-09-09T04:28:08;95019.97;;;24.42;46.37
22389;BME280;11362;48.102;11.620;2022-09-09T04:30:34;95015.97;;;24.43;45.98
22389;BME280;11362;48.102;11.620;2022-09-09T04:32:59;95015.16;;;24.43;46.37
22389;BME280;11362;48.102;11.620;2022-09-09T04:35:24;95014.41;;;24.42;46.22
22389;BME280;11362;48.102;11.620;2022-09-09T04:37:50;95017.19;;;24.42;46.14
22389;BME280;11362;48.102;11.620;2022-09-09T04:40:15;95008.84;;;24.42;46.30
22389;BME280;11362;48.102;11.620;2022-09-09T04:42:40;95014.41;;;24.42;46.46
22389;BME280;11362;48.102;11.620;2022-09-09T04:45:06;95008.06;;;24.42;46.21
22389;BME280;11362;48.102;11.620;2022-09-09T04:47:32;95011.63;;;24.42;46.26
22389;BME280;11362;48.102;11.620;2022-09-09T04:49:58;95017.19;;;24.42;46.19
22389;BME280;11362;48.102;11.620;2022-09-09T04:52:23;95015.16;;;24.43;46.33
22389;BME280;11362;48.102;11.620;2022-09-09T04:54:48;95019.97;;;24.42;46.28
22389;BME280;11362;48.102;11.620;2022-09-09T04:57:14;95008.84;;;24.42;46.22
22389;BME280;11362;48.102;11.620;2022-09-09T04:59:39;95007.25;;;24.41;46.25
22389;BME280;11362;48.102;11.620;2022-09-09T05:02:04;94999.72;;;24.42;46.39
22389;BME280;11362;48.102;11.620;2022-09-09T05:04:30;95010.41;;;24.43;46.36
22389;BME280;11362;48.102;11.620;2022-09-09T05:06:55;95014.41;;;24.42;46.35
22389;BME280;11362;48.102;11.620;2022-09-09T05:09:21;95010.84;;;24.42;46.19
22389;BME280;11362;48.102;11.620;2022-09-09T05:11:46;95023.91;;;24.41;46.37
22389;BME280;11362;48.102;11.620;2022-09-09T05:14:11;95021.53;;;24.43;46.24
22389;BME280;11362;48.102;11.620;2022-09-09T05:16:36;95018.38;;;24.41;46.33
22389;BME280;11362;48.102;11.620;2022-09-09T05:19:02;95029.47;;;24.41;46.36
22389;BME280;11362;48.102;11.620;2022-09-09T05:21:27;95026.69;;;24.41;46.16
22389;BME280;11362;48.102;11.620;2022-09-09T05:23:52;95027.50;;;24.42;46.24
22389;BME280;11362;48.102;11.620;2022-09-09T05:26:20;95037.03;;;24.41;46.34
22389;BME280;11362;48.102;11.620;2022-09-09T05:28:46;95035.03;;;24.41;46.22
22389;BME280;11362;48.102;11.620;2022-09-09T05:31:13;95032.25;;;24.41;46.10
22389;BME280;11362;48.102;11.620;2022-09-09T05:33:41;95032.25;;;24.41;46.19
22389;BME280;11362;48.102;11.620;2022-09-09T05:36:09;95027.50;;;24.42;46.19
22389;BME280;11362;48.102;11.620;2022-09-09T05:38:35;95022.38;;;24.40;46.05
22389;BME280;11362;48.102;11.620;2022-09-09T05:41:01;95026.69;;;24.41;46.21
22389;BME280;11362;48.102;11.620;2022-09-09T05:43:27;95027.91;;;24.40;46.24
22389;BME280;11362;48.102;11.620;2022-09-09T05:46:13;95037.03;;;24.41;46.27
22389;BME280;11362;48.102;11.620;2022-09-09T05:48:40;95035.81;;;24.42;46.34
22389;BME280;11362;48.102;11.620;2022-09-09T05:51:09;95031.47;;;24.41;46.18
22389;BME280;11362;48.102;11.620;2022-09-09T05:53:35;95034.25;;;24.41;46.24
22389;BME280;11362;48.102;11.620;2022-09-09T05:56:05;95036.25;;;24.40;46.09
22389;BME280;11362;48.102;11.620;2022-09-09T05:58:34;95029.47;;;24.41;46.32
22389;BME280;11362;48.102;11.620;2022-09-09T06:01:07;95039.81;;;24.41;46.27
22389;BME280;11362;48.102;11.620;2022-09-09T06:03:37;95040.59;;;24.41;46.34
22389;BME280;11362;48.102;11.620;2022-09-09T06:06:09;95051.69;;;24.41;46.12
22389;BME280;11362;48.102;11.620;2022-09-09T06:08:37;95041.78;;;24.40;46.28
22389;BME280;11362;48.102;11.620;2022-09-09T06:13:32;95044.56;;;24.40;46.06
22389;BME280;11362;48.102;11.620;2022-09-09T06:15:57;95048.16;;;24.41;46.22
22389;BME280;11362;48.102;11.620;2022-09-09T06:18:24;95048.91;;;24.41;46.32
22389;BME280;11362;48.102;11.620;2022-09-09T06:21:02;95048.16;;;24.41;46.02
22389;BME280;11362;48.102;11.620;2022-09-09T06:23:28;95051.34;;;24.39;46.10
22389;BME280;11362;48.102;11.620;2022-09-09T06:26:05;95048.91;;;24.41;46.23
22389;BME280;11362;48.102;11.620;2022-09-09T06:28:32;95051.69;;;24.41;46.35
22389;BME280;11362;48.102;11.620;2022-09-09T06:30:59;95042.59;;;24.41;46.25
22389;BME280;11362;48.102;11.620;2022-09-09T06:33:25;95047.34;;;24.40;46.15
22389;BME280;11362;48.102;11.620;2022-09-09T06:35:54;95044.56;;;24.40;46.17
22389;BME280;11362;48.102;11.620;2022-09-09T06:38:19;95046.13;;;24.41;46.40
22389;BME280;11362;48.102;11.620;2022-09-09T06:40:54;95044.56;;;24.40;46.24
22389;BME280;11362;48.102;11.620;2022-09-09T06:43:21;95040.22;;;24.39;46.20
22389;BME280;11362;48.102;11.620;2022-09-09T06:45:57;95049.34;;;24.40;46.10
22389;BME280;11362;48.102;11.620;2022-09-09T06:48:23;95055.69;;;24.40;46.33
22389;BME280;11362;48.102;11.620;2022-09-09T06:50:48;95058.44;;;24.40;46.46
22389;BME280;11362;48.102;11.620;2022-09-09T06:53:16;95055.69;;;24.40;46.29
22389;BME280;11362;48.102;11.620;2022-09-09T06:55:41;95055.69;;;24.40;46.38
22389;BME280;11362;48.102;11.620;2022-09-09T06:58:10;95059.25;;;24.41;46.17
22389;BME280;11362;48.102;11.620;2022-09-09T07:00:35;95064.00;;;24.40;46.10
22389;BME280;11362;48.102;11.620;2022-09-09T07:03:01;95058.44;;;24.40;46.25
22389;BME280;11362;48.102;11.620;2022-09-09T07:05:26;95062.03;;;24.41;46.23
22389;BME280;11362;48.102;11.620;2022-09-09T07:07:51;95064.44;;;24.39;46.32
22389;BME280;11362;48.102;11.620;2022-09-09T07:10:17;95062.44;;;24.39;46.11
22389;BME280;11362;48.102;11.620;2022-09-09T07:12:42;95063.25;;;24.40;46.19
22389;BME280;11362;48.102;11.620;2022-09-09T07:15:08;95054.91;;;24.40;46.05
22389;BME280;11362;48.102;11.620;2022-09-09T07:17:33;95066.00;;;24.40;46.27
22389;BME280;11362;48.102;11.620;2022-09-09T07:19:59;95070.78;;;24.39;46.20
22389;BME280;11362;48.102;11.620;2022-09-09T07:22:24;95072.00;;;24.38;46.19
22389;BME280;11362;48.102;11.620;2022-09-09T07:24:49;95076.31;;;24.39;46.37
22389;BME280;11362;48.102;11.620;2022-09-09T07:27:14;95081.88;;;24.39;46.33
22389;BME280;11362;48.102;11.620;2022-09-09T07:29:40;95092.97;;;24.39;46.27
22389;BME280;11362;48.102;11.620;2022-09-09T07:32:05;95111.19;;;24.40;46.09
22389;BME280;11362;48.102;11.620;2022-09-09T07:34:30;95112.00;;;24.41;46.14
22389;BME280;11362;48.102;11.620;2022-09-09T07:36:56;95104.88;;;24.40;46.32
22389;BME280;11362;48.102;11.620;2022-09-09T07:39:21;95106.09;;;24.39;46.16
22389;BME280;11362;48.102;11.620;2022-09-09T07:41:48;95109.63;;;24.39;46.31
22389;BME280;11362;48.102;11.620;2022-09-09T07:44:15;95112.41;;;24.39;46.31
22389;BME280;11362;48.102;11.620;2022-09-09T07:46:41;95113.22;;;24.40;46.27
22389;BME280;11362;48.102;11.620;2022-09-09T07:49:08;95117.97;;;24.39;46.20
22389;BME280;11362;48.102;11.620;2022-09-09T07:51:36;95124.31;;;24.40;46.27
22389;BME280;11362;48.102;11.620;2022-09-09T07:54:05;95125.53;;;24.39;46.01
22389;BME280;11362;48.102;11.620;2022-09-09T07:56:30;95132.66;;;24.40;45.77
22389;BME280;11362;48.102;11.620;2022-09-09T07:58:57;95131.84;;;24.39;46.33
22389;BME280;11362;48.102;11.620;2022-09-09T08:01:25;95131.84;;;24.39;46.18
22389;BME280;11362;48.102;11.620;2022-09-09T08:04:01;95126.28;;;24.39;46.37
22389;BME280;11362;48.102;11.620;2022-09-09T08:06:29;95129.06;;;24.39;46.41
22389;BME280;11362;48.102;11.620;2022-09-09T08:08:55;95127.50;;;24.38;46.23
22389;BME280;11362;48.102;11.620;2022-09-09T08:11:22;95126.28;;;24.39;46.35
22389;BME280;11362;48.102;11.620;2022-09-09T08:13:49;95129.06;;;24.39;46.22
22389;BME280;11362;48.102;11.620;2022-09-09T08:16:24;95133.06;;;24.38;46.16
22389;BME280;11362;48.102;11.620;2022-09-09T08:18:50;95133.41;;;24.40;46.26
22389;BME280;11362;48.102;11.620;2022-09-09T08:21:17;95135.44;;;24.40;46.29
22389;BME280;11362;48.102;11.620;2022-09-09T08:23:45;95147.28;;;24.40;46.32
22389;BME280;11362;48.102;11.620;2022-09-09T08:26:20;95158.41;;;24.40;46.29
22389;BME280;11362;48.102;11.620;2022-09-09T08:28:45;95154.84;;;24.40;46.24
22389;BME280;11362;48.102;11.620;2022-09-09T08:31:16;95153.66;;;24.41;46.36
22389;BME280;11362;48.102;11.620;2022-09-09T08:33:43;95140.19;;;24.39;46.23
22389;BME280;11362;48.102;11.620;2022-09-09T08:36:10;95154.41;;;24.41;46.30
22389;BME280;11362;48.102;11.620;2022-09-09T08:38:36;95155.63;;;24.40;46.12
22389;BME280;11362;48.102;11.620;2022-09-09T08:43:46;95159.63;;;24.39;46.38
22389;BME280;11362;48.102;11.620;2022-09-09T08:46:24;95152.50;;;24.38;46.15
22389;BME280;11362;48.102;11.620;2022-09-09T08:48:57;95158.84;;;24.39;46.44
22389;BME280;11362;48.102;11.620;2022-09-09T08:51:27;95156.84;;;24.39;46.35
22389;BME280;11362;48.102;11.620;2022-09-09T08:53:54;95153.28;;;24.39;46.15
22389;BME280;11362;48.102;11.620;2022-09-09T08:56:23;95158.06;;;24.38;46.21
22389;BME280;11362;48.102;11.620;2022-09-09T08:58:52;95156.84;;;24.39;46.34
22389;BME280;11362;48.102;11.620;2022-09-09T09:01:44;95152.06;;;24.40;46.47
22389;BME280;11362;48.102;11.620;2022-09-09T09:04:32;95152.50;;;24.38;46.46
22389;BME280;11362;48.102;11.620;2022-09-09T09:07:40;95147.75;;;24.39;46.44
22389;BME280;11362;48.102;11.620;2022-09-09T09:12:51;95158.06;;;24.38;46.41
22389;BME280;11362;48.102;11.620;2022-09-09T09:15:23;95152.50;;;24.38;46.45
22389;BME280;11362;48.102;11.620;2022-09-09T09:17:49;95156.84;;;24.39;46.44
22389;BME280;11362;48.102;11.620;2022-09-09T09:20:16;95159.63;;;24.39;46.49
22389;BME280;11362;48.102;11.620;2022-09-09T09:22:55;95154.06;;;24.39;46.20
22389;BME280;11362;48.102;11.620;2022-09-09T09:25:30;95160.41;;;24.40;46.51
22389;BME280;11362;48.102;11.620;2022-09-09T09:28:01;95159.63;;;24.39;46.42
22389;BME280;11362;48.102;11.620;2022-09-09T09:30:35;95154.84;;;24.40;46.40
22389;BME280;11362;48.102;11.620;2022-09-09T09:33:11;95150.06;;;24.40;46.37
22389;BME280;11362;48.102;11.620;2022-09-09T09:35:39;95157.19;;;24.41;46.35
22389;BME280;11362;48.102;11.620;2022-09-09T09:38:18;95160.41;;;24.40;46.31
22389;BME280;11362;48.102;11.620;2022-09-09T09:40:50;95164.75;;;24.41;46.38
22389;BME280;11362;48.102;11.620;2022-09-09T09:43:21;95160.41;;;24.40;46.42
22389;BME280;11362;48.102;11.620;2022-09-09T09:45:47;95172.28;;;24.40;46.79
22389;BME280;11362;48.102;11.620;2022-09-09T09:48:13;95161.19;;;24.40;46.54
22389;BME280;11362;48.102;11.620;2022-09-09T09:50:57;95168.75;;;24.40;46.42
22389;BME280;11362;48.102;11.620;2022-09-09T09:53:26;95165.16;;;24.39;46.46
22389;BME280;11362;48.102;11.620;2022-09-09T09:56:01;95169.50;;;24.40;46.47
22389;BME280;11362;48.102;11.620;2022-09-09T09:58:32;95165.97;;;24.40;46.43
22389;BME280;11362;48.102;11.620;2022-09-09T10:00:58;95171.50;;;24.40;46.29
22389;BME280;11362;48.102;11.620;2022-09-09T10:03:27;95173.50;;;24.39;46.36
22389;BME280;11362;48.102;11.620;2022-09-09T10:05:53;95163.94;;;24.40;46.50
22389;BME280;11362;48.102;11.620;2022-09-09T10:08:19;95165.16;;;24.39;46.19
22389;BME280;11362;48.102;11.620;2022-09-09T10:13:26;95165.16;;;24.39;46.52
22389;BME280;11362;48.102;11.620;2022-09-09T10:21:48;95167.94;;;24.39;46.44
22389;BME280;11362;48.102;11.620;2022-09-09T10:24:42;95161.63;;;24.39;46.58
22389;BME280;11362;48.102;11.620;2022-09-09T10:27:24;95158.06;;;24.38;46.54
22389;BME280;11362;48.102;11.620;2022-09-09T10:30:14;95158.06;;;24.38;46.39
22389;BME280;11362;48.102;11.620;2022-09-09T10:32:49;95158.06;;;24.38;46.48
22389;BME280;11362;48.102;11.620;2022-09-09T10:35:43;95159.63;;;24.39;46.40
22389;BME280;11362;48.102;11.620;2022-09-09T10:38:17;95158.84;;;24.39;46.51
22389;BME280;11362;48.102;11.620;2022-09-09T10:43:33;95162.38;;;24.39;46.41
22389;BME280;11362;48.102;11.620;2022-09-09T10:49:15;95166.72;;;24.40;46.32
22389;BME280;11362;48.102;11.620;2022-09-09T10:52:07;95165.16;;;24.39;46.51
22389;BME280;11362;48.102;11.620;2022-09-09T10:57:29;95161.19;;;24.40;46.47
22389;BME280;11362;48.102;11.620;2022-09-09T10:59:58;95161.97;;;24.41;46.20
22389;BME280;11362;48.102;11.620;2022-09-09T11:02:31;95162.75;;;24.41;46.35
22389;BME280;11362;48.102;11.620;2022-09-09T11:07:44;95167.53;;;24.41;46.48
22389;BME280;11362;48.102;11.620;2022-09-09T11:10:25;95171.06;;;24.41;46.48
22389;BME280;11362;48.102;11.620;2022-09-09T11:12:58;95165.50;;;24.41;46.48
22389;BME280;11362;48.102;11.620;2022-09-09T11:15:31;95164.34;;;24.42;46.05
22389;BME280;11362;48.102;11.620;2022-09-09T11:17:58;95162.31;;;24.43;46.37
22389;BME280;11362;48.102;11.620;2022-09-09T11:20:26;95164.34;;;24.42;46.48
22389;BME280;11362;48.102;11.620;2022-09-09T11:23:42;95160.34;;;24.43;46.32
22389;BME280;11362;48.102;11.620;2022-09-09T11:26:07;95165.91;;;24.43;46.38
22389;BME280;11362;48.102;11.620;2022-09-09T11:28:58;95165.09;;;24.43;46.22
22389;BME280;11362;48.102;11.620;2022-09-09T11:39:49;95161.09;;;24.44;46.41
22389;BME280;11362;48.102;11.620;2022-09-09T11:42:21;95156.34;;;24.44;46.32
22389;BME280;11362;48.102;11.620;2022-09-09T11:44:47;95160.34;;;24.43;46.30
22389;BME280;11362;48.102;11.620;2022-09-09T11:47:29;95152.78;;;24.44;46.42
22389;BME280;11362;48.102;11.620;2022-09-09T11:50:08;95153.56;;;24.44;46.34
22389;BME280;11362;48.102;11.620;2022-09-09T11:52:38;95155.13;;;24.45;46.22
22389;BME280;11362;48.102;11.620;2022-09-09T11:55:10;95158.72;;;24.46;46.33
22389;BME280;11362;48.102;11.620;2022-09-09T11:57:36;95154.34;;;24.45;46.38
22389;BME280;11362;48.102;11.620;2022-09-09T12:00:03;95155.94;;;24.46;46.47
22389;BME280;11362;48.102;11.620;2022-09-09T12:02:29;95150.38;;;24.46;46.45
22389;BME280;11362;48.102;11.620;2022-09-09T12:05:05;95147.59;;;24.46;46.31
22389;BME280;11362;48.102;11.620;2022-09-09T12:07:41;95148.03;;;24.44;46.47
22389;BME280;11362;48.102;11.620;2022-09-09T12:12:35;95152.38;;;24.45;46.70
22389;BME280;11362;48.102;11.620;2022-09-09T12:17:44;95155.50;;;24.47;46.29
22389;BME280;11362;48.102;11.620;2022-09-09T12:20:14;95160.28;;;24.47;46.38
22389;BME280;11362;48.102;11.620;2022-09-09T12:22:43;95156.69;;;24.46;46.43
22389;BME280;11362;48.102;11.620;2022-09-09T12:31:12;95146.81;;;24.45;46.35
22389;BME280;11362;48.102;11.620;2022-09-09T12:33:40;95140.03;;;24.46;46.58
22389;BME280;11362;48.102;11.620;2022-09-09T12:36:11;95140.03;;;24.46;46.23
22389;BME280;11362;48.102;11.620;2022-09-09T12:38:40;95145.59;;;24.46;46.37
22389;BME280;11362;48.102;11.620;2022-09-09T12:41:05;95142.81;;;24.46;46.33
22389;BME280;11362;48.102;11.620;2022-09-09T12:43:31;95134.06;;;24.48;46.35
22389;BME280;11362;48.102;11.620;2022-09-09T12:46:00;95126.97;;;24.47;46.11
22389;BME280;11362;48.102;11.620;2022-09-09T12:48:33;95129.28;;;24.48;46.19
22389;BME280;11362;48.102;11.620;2022-09-09T12:51:01;95134.84;;;24.48;46.24
22389;BME280;11362;48.102;11.620;2022-09-09T12:53:36;95120.97;;;24.48;46.11
22389;BME280;11362;48.102;11.620;2022-09-09T12:56:04;95120.97;;;24.48;46.20
22389;BME280;11362;48.102;11.620;2022-09-09T12:58:31;95124.53;;;24.49;46.25
22389;BME280;11362;48.102;11.620;2022-09-09T13:00:56;95127.72;;;24.47;46.02
22389;BME280;11362;48.102;11.620;2022-09-09T13:03:22;95122.16;;;24.47;46.17
22389;BME280;11362;48.102;11.620;2022-09-09T13:05:48;95117.41;;;24.48;46.21
22389;BME280;11362;48.102;11.620;2022-09-09T13:08:15;95121.41;;;24.47;46.39
22389;BME280;11362;48.102;11.620;2022-09-09T13:10:48;95115.06;;;24.46;46.22
22389;BME280;11362;48.102;11.620;2022-09-09T13:13:19;95113.06;;;24.47;46.19
22389;BME280;11362;48.102;11.620;2022-09-09T13:15:59;95114.63;;;24.48;46.24
22389;BME280;11362;48.102;11.620;2022-09-09T13:18:29;95111.06;;;24.47;46.37
22389;BME280;11362;48.102;11.620;2022-09-09T13:20:56;95105.50;;;24.47;46.29
22389;BME280;11362;48.102;11.620;2022-09-09T13:23:22;95100.75;;;24.48;46.22
22389;BME280;11362;48.102;11.620;2022-09-09T13:25:58;95093.63;;;24.47;46.33
22389;BME280;11362;48.102;11.620;2022-09-09T13:28:27;95094.41;;;24.47;46.13
22389;BME280;11362;48.102;11.620;2022-09-09T13:31:00;95099.97;;;24.47;46.25
22389;BME280;11362;48.102;11.620;2022-09-09T13:33:34;95094.41;;;24.47;46.09
22389;BME280;11362;48.102;11.620;2022-09-09T13:36:05;95090.88;;;24.47;46.42
22389;BME280;11362;48.102;11.620;2022-09-09T13:38:35;95092.84;;;24.46;46.28
22389;BME280;11362;48.102;11.620;2022-09-09T13:41:03;95086.06;;;24.47;46.34
22389;BME280;11362;48.102;11.620;2022-09-09T13:43:33;95086.53;;;24.46;46.17
22389;BME280;11362;48.102;11.620;2022-09-09T13:46:02;95090.06;;;24.46;46.36
22389;BME280;11362;48.102;11.620;2022-09-09T13:48:28;95095.63;;;24.46;46.27
22389;BME280;11362;48.102;11.620;2022-09-09T13:51:00;95086.53;;;24.46;46.02
22389;BME280;11362;48.102;11.620;2022-09-09T13:53:26;95083.75;;;24.46;46.08
22389;BME280;11362;48.102;11.620;2022-09-09T13:55:52;95083.75;;;24.46;46.21
22389;BME280;11362;48.102;11.620;2022-09-09T13:58:18;95077.41;;;24.45;46.15
22389;BME280;11362;48.102;11.620;2022-09-09T14:00:43;95073.81;;;24.45;46.12
22389;BME280;11362;48.102;11.620;2022-09-09T14:03:08;95073.81;;;24.45;46.16
22389;BME280;11362;48.102;11.620;2022-09-09T14:05:33;95068.28;;;24.45;46.24
22389;BME280;11362;48.102;11.620;2022-09-09T14:07:59;95069.06;;;24.45;46.31
22389;BME280;11362;48.102;11.620;2022-09-09T14:10:25;95072.63;;;24.46;46.00
22389;BME280;11362;48.102;11.620;2022-09-09T14:12:51;95070.63;;;24.46;46.27
22389;BME280;11362;48.102;11.620;2022-09-09T14:15:16;95074.63;;;24.45;46.08
22389;BME280;11362;48.102;11.620;2022-09-09T14:17:42;95080.19;;;24.45;46.31
22389;BME280;11362;48.102;11.620;2022-09-09T14:20:08;95077.41;;;24.45;46.33